Airfield :
LOGIN :

Register | Disclaimer

   EN    FR    IT 

 










Legend :    VFR   Marginal VFR   IFR   Intensive IFR   Very Intensive IFR
Visi :
Ceiling :
>= 8 km
>= 3000ft
5 to 8 km
1000 to 3000 ft
1500m to 5 km
500 to 1000 ft
800 to 1500m
200 to 500 ft
< 800m
< 200 ft
Symbols :   Thunderstorms  Fog  Heavy snow  Heavy precipitations  Wind > 20 kt
SIGMETs :     Misc.  Thunderstorms  Icing  Turbulence  Mountain Waves  Volcanic Ashes







- Airport Elevation : 0 ft


ENSL - Sleipner A Platform

CURRENT METAR :
  • 240820Z 34026KT 9999 BKN015 10/07 Q1008 W08/S4

EXPIRED METARs :
  • 240750Z 33026KT 9999 BKN020 10/07 Q1008 W07/S4
  • 240720Z 33028KT 9999 BKN015 10/07 Q1007 W07/S4
  • 240650Z 33027KT 9999 BKN015 10/07 Q1007 W07/S4
  • 240620Z 33026KT 9999 BKN010 10/07 Q1007 W07/S4
  • 240550Z 33027KT 6000 -SHRA BKN010 09/08 Q1007 W07/S4

TAF TAF ENSL
Valid from the 24 at 09:00 until the 24 at 17:00 UTC


240800Z 2409/2417 33025KT 9999 BKN020
PROB30 2409/2412 BKN012
BECMG 2410/2412 31015KT
No reported NOTAMs for that airfield.



MET'MAP, your aeronautical weather chart ! - Copyright ORBIFLY December 2007 - Disclaimer

ORBIFLY MET'MAP TEAM :

Programming & Development : Alexandra Zaïnal
Concept & Development : Baudouin d'Aumeries
Co-Development & Prog : Marc-Olivier Méhu
Technical & hardware support : Manuel Goepfert

Contact : metmap@orbifly.com




SOURCES & CREDITS :

   NOAA